Main page
METAR-TAF:

METAR-TAF

Airports :

Albacete, Spain

Albacete Airport

latitude: 38-57N, longitude: 001-51W, elevation: 702 m

Current weather observation

The report was made 55 minutes ago, at 23:00 UTC
Calm wind
Temperature 2°C
Humidity 93%
Pressure 1019 hPa
Visibility 10 km or more
Few clouds at a height of 2500 ft

METAR: LEAB 182300Z 00000KT 9999 FEW025 02/01 Q1019 NOSIG

Time: 00:55 (23:55 UTC)

Forecast

The report was made 55 minutes ago, at 23:00 UTC
Forecast valid from 19 at 00 UTC to 19 at 09 UTC
Wind 4 kt from variable directions
Visibility 10 km or more
Few clouds at a height of 2500 ft

TAF: LEAB 182300Z 1900/1909 VRB04KT 9999 FEW025

Weather observations and forecasts of more than 4000 airports (METAR and TAF reports).

The available stations are represented by yellow and red dots on the map.

Hover mouse over dot to see the name of the station.

Then click to see weather observations and forecasts.

To change the map : click on the green buttons with a black cross to zoom in, on the green button with a dash to zoom out, or on the green arrows for adjacent maps.


METAR-TAF: